Time;durP1;ratioP1;P1;durP2;ratioP2;P2;SDS_P1;SDS_P2;PMS_P1;PMS_P2;Temp;Humidity;BMP_temperature;BMP_pressure;BME280_temperature;BME280_humidity;BME280_pressure;Samples;Min_cycle;Max_cycle;Signal;HPM_P1;HPM_P2
2023/05/13 00:00:50;;;;;;;19.02;10.48;;;;;;;;;;2505210;23;20034;-76
2023/05/13 00:02:11;;;;;;;20.35;11.30;;;;;;;;;;2501115;23;20405;-75
2023/05/13 00:03:32;;;;;;;18.83;11.10;;;;;;;;;;2502411;23;20015;-76
2023/05/13 00:04:53;;;;;;;17.67;11.20;;;;;;;;;;2504458;23;20011;-76
2023/05/13 00:06:14;;;;;;;14.02;10.35;;;;;;;;;;2506943;23;20011;-75
2023/05/13 00:07:35;;;;;;;14.10;10.75;;;;;;;;;;2503615;23;20427;-76
2023/05/13 00:08:56;;;;;;;15.57;10.32;;;;;;;;;;2509342;23;20011;-76
2023/05/13 00:10:19;;;;;;;14.10;10.10;;;;;;;;;;2509803;23;20011;-76
2023/05/13 00:11:40;;;;;;;13.20;10.00;;;;;;;;;;2514451;23;20022;-76
2023/05/13 00:13:01;;;;;;;13.10;9.35;;;;;;;;;;2512065;23;20022;-76
2023/05/13 00:14:21;;;;;;;12.38;10.27;;;;;;;;;;2517882;23;20010;-76
2023/05/13 00:15:42;;;;;;;13.82;10.32;;;;;;;;;;2510458;23;20035;-74
2023/05/13 00:17:05;;;;;;;14.45;10.48;;;;;;;;;;2519713;23;20018;-74
2023/05/13 00:18:26;;;;;;;19.08;10.63;;;;;;;;;;2521677;23;20021;-74
2023/05/13 00:19:47;;;;;;;20.08;11.55;;;;;;;;;;2519247;23;20081;-73
2023/05/13 00:21:09;;;;;;;13.25;9.90;;;;;;;;;;2520880;23;20011;-74
2023/05/13 00:22:30;;;;;;;15.27;10.20;;;;;;;;;;2523272;23;20010;-74
2023/05/13 00:23:51;;;;;;;14.88;11.30;;;;;;;;;;2519565;23;20057;-74
2023/05/13 00:25:11;;;;;;;18.65;10.95;;;;;;;;;;2508455;23;20334;-74
2023/05/13 00:26:32;;;;;;;15.57;10.55;;;;;;;;;;2518074;23;20010;-74
2023/05/13 00:27:53;;;;;;;14.35;10.35;;;;;;;;;;2511784;23;20007;-74
2023/05/13 00:29:14;;;;;;;14.90;10.77;;;;;;;;;;2506487;23;20015;-74
2023/05/13 00:30:35;;;;;;;18.05;10.68;;;;;;;;;;2505928;23;20413;-74
2023/05/13 00:31:56;;;;;;;14.95;10.90;;;;;;;;;;2506956;23;20011;-74
2023/05/13 00:33:17;;;;;;;14.02;10.77;;;;;;;;;;2518327;23;20022;-74
2023/05/13 00:34:38;;;;;;;14.27;10.27;;;;;;;;;;2522551;23;20013;-74
2023/05/13 00:35:59;;;;;;;15.40;10.90;;;;;;;;;;2509161;23;20015;-74
2023/05/13 00:37:20;;;;;;;15.55;11.70;;;;;;;;;;2518329;23;20019;-74
2023/05/13 00:38:42;;;;;;;16.92;11.63;;;;;;;;;;2507087;23;20111;-74
2023/05/13 00:40:03;;;;;;;15.77;11.45;;;;;;;;;;2506935;23;20011;-74
2023/05/13 00:41:24;;;;;;;14.88;10.82;;;;;;;;;;2514742;23;20007;-74
2023/05/13 00:42:46;;;;;;;18.05;12.45;;;;;;;;;;2510596;23;20019;-74
2023/05/13 00:44:08;;;;;;;15.13;11.77;;;;;;;;;;2519622;23;20336;-74
2023/05/13 00:45:29;;;;;;;14.63;11.40;;;;;;;;;;2522246;23;20011;-74
2023/05/13 00:46:50;;;;;;;15.40;11.88;;;;;;;;;;2522686;23;20010;-74
2023/05/13 00:48:12;;;;;;;16.63;12.40;;;;;;;;;;2522081;23;20017;-73
2023/05/13 00:49:33;;;;;;;16.40;11.48;;;;;;;;;;2511199;23;20036;-74
2023/05/13 00:50:54;;;;;;;14.00;11.30;;;;;;;;;;2505131;23;20022;-74
2023/05/13 00:52:16;;;;;;;12.73;10.88;;;;;;;;;;2509604;23;20022;-74
2023/05/13 00:53:37;;;;;;;18.50;10.95;;;;;;;;;;2506850;23;20022;-74
2023/05/13 00:54:58;;;;;;;15.80;11.25;;;;;;;;;;2519767;23;20029;-74
2023/05/13 00:56:23;;;;;;;18.65;11.70;;;;;;;;;;2508266;23;20033;-74
2023/05/13 00:57:44;;;;;;;18.02;11.95;;;;;;;;;;2505467;23;20018;-73
2023/05/13 00:59:04;;;;;;;16.98;10.70;;;;;;;;;;2519100;23;20021;-73
2023/05/13 01:00:27;;;;;;;14.98;11.68;;;;;;;;;;2507868;23;20055;-76
2023/05/13 01:01:54;;;;;;;14.43;10.70;;;;;;;;;;2519029;23;20010;-76
2023/05/13 01:03:39;;;;;;;17.13;11.50;;;;;;;;;;2518175;23;20758;-81
2023/05/13 01:05:15;;;;;;;16.77;10.80;;;;;;;;;;2509103;23;20011;-81
2023/05/13 01:06:51;;;;;;;16.77;11.07;;;;;;;;;;2510465;23;20022;-81
2023/05/13 01:08:30;;;;;;;25.23;12.25;;;;;;;;;;2507170;23;20011;-81
2023/05/13 01:09:55;;;;;;;17.67;11.88;;;;;;;;;;2521878;23;20015;-81
2023/05/13 01:11:20;;;;;;;23.20;11.73;;;;;;;;;;2509305;23;20033;-81
2023/05/13 01:12:45;;;;;;;13.45;11.10;;;;;;;;;;2520082;23;20033;-81
2023/05/13 01:14:15;;;;;;;15.10;10.88;;;;;;;;;;2534114;23;20018;-82
2023/05/13 01:15:44;;;;;;;18.27;11.57;;;;;;;;;;2536379;23;20021;-81
2023/05/13 01:17:14;;;;;;;14.48;11.35;;;;;;;;;;2533641;23;20014;-81
2023/05/13 01:18:36;;;;;;;17.20;11.45;;;;;;;;;;2519889;23;20440;-82
2023/05/13 01:19:59;;;;;;;16.05;11.50;;;;;;;;;;2518167;23;20057;-81
2023/05/13 01:21:24;;;;;;;13.93;10.77;;;;;;;;;;2528666;23;20006;-81
2023/05/13 01:22:46;;;;;;;17.58;10.60;;;;;;;;;;2531389;23;20010;-81
2023/05/13 01:24:07;;;;;;;13.23;10.68;;;;;;;;;;2518055;23;20021;-82
2023/05/13 01:25:27;;;;;;;12.85;10.50;;;;;;;;;;2519366;23;20344;-81
2023/05/13 01:26:48;;;;;;;15.38;11.63;;;;;;;;;;2516870;23;20021;-81
2023/05/13 01:28:09;;;;;;;16.20;11.32;;;;;;;;;;2529748;23;20013;-81
2023/05/13 01:29:30;;;;;;;19.48;10.98;;;;;;;;;;2535891;23;20017;-81
2023/05/13 01:30:51;;;;;;;17.02;11.07;;;;;;;;;;2531389;23;20010;-81
2023/05/13 01:32:12;;;;;;;14.13;10.35;;;;;;;;;;2519256;23;20026;-81
2023/05/13 01:33:33;;;;;;;14.38;10.52;;;;;;;;;;2516711;23;20026;-81
2023/05/13 01:34:55;;;;;;;19.83;11.65;;;;;;;;;;2529838;23;20017;-80
2023/05/13 01:36:16;;;;;;;13.35;9.80;;;;;;;;;;2533264;23;20034;-80
2023/05/13 01:37:37;;;;;;;15.03;10.63;;;;;;;;;;2522595;23;20010;-81
2023/05/13 01:38:59;;;;;;;16.88;9.98;;;;;;;;;;2529696;23;20396;-81
2023/05/13 01:40:20;;;;;;;16.27;11.07;;;;;;;;;;2520185;23;20372;-80
2023/05/13 01:41:41;;;;;;;12.43;10.68;;;;;;;;;;2516712;23;20006;-81
2023/05/13 01:43:02;;;;;;;19.25;10.48;;;;;;;;;;2518746;23;20006;-81
2023/05/13 01:44:25;;;;;;;13.77;10.00;;;;;;;;;;2517078;23;20460;-81
2023/05/13 01:45:46;;;;;;;16.85;10.98;;;;;;;;;;2515867;23;20470;-81
2023/05/13 01:47:07;;;;;;;12.13;9.85;;;;;;;;;;2528101;23;20010;-81
2023/05/13 01:48:27;;;;;;;14.98;11.20;;;;;;;;;;2521083;23;20010;-81
2023/05/13 01:49:48;;;;;;;12.73;9.73;;;;;;;;;;2518535;23;20364;-81
2023/05/13 01:51:09;;;;;;;14.93;10.38;;;;;;;;;;2514998;23;20086;-81
2023/05/13 01:52:30;;;;;;;16.38;11.23;;;;;;;;;;2530352;23;20025;-81
2023/05/13 01:53:51;;;;;;;16.40;10.40;;;;;;;;;;2524710;23;20031;-81
2023/05/13 01:55:12;;;;;;;15.18;10.55;;;;;;;;;;2522446;23;20348;-81
2023/05/13 01:56:33;;;;;;;15.13;10.73;;;;;;;;;;2509475;23;20014;-81
2023/05/13 01:57:54;;;;;;;13.88;11.45;;;;;;;;;;2505830;23;20011;-80
2023/05/13 01:59:15;;;;;;;15.93;10.23;;;;;;;;;;2520148;23;20011;-81
2023/05/13 02:00:36;;;;;;;15.52;9.85;;;;;;;;;;2521792;23;20015;-80
2023/05/13 02:01:57;;;;;;;17.02;10.15;;;;;;;;;;2508676;23;20014;-81
2023/05/13 02:03:17;;;;;;;15.30;10.38;;;;;;;;;;2503289;23;20014;-79
2023/05/13 02:04:38;;;;;;;13.00;9.88;;;;;;;;;;2517364;23;20033;-81
2023/05/13 02:05:59;;;;;;;14.15;10.13;;;;;;;;;;2509976;23;20023;-81
2023/05/13 02:07:20;;;;;;;17.38;10.65;;;;;;;;;;2504313;23;20007;-80
2023/05/13 02:08:41;;;;;;;15.23;10.10;;;;;;;;;;2518315;23;20403;-81
2023/05/13 02:10:02;;;;;;;11.73;9.43;;;;;;;;;;2512069;23;20026;-80
2023/05/13 02:11:23;;;;;;;11.60;9.55;;;;;;;;;;2506749;23;20019;-81
2023/05/13 02:12:44;;;;;;;18.88;12.20;;;;;;;;;;2511463;23;20069;-81
2023/05/13 02:14:05;;;;;;;13.40;10.50;;;;;;;;;;2519333;23;20022;-81
2023/05/13 02:15:26;;;;;;;12.05;9.57;;;;;;;;;;2521460;23;20015;-81
2023/05/13 02:16:47;;;;;;;15.63;10.75;;;;;;;;;;2521283;23;20011;-81
2023/05/13 02:18:07;;;;;;;20.67;10.57;;;;;;;;;;2521407;23;20348;-81
2023/05/13 02:19:28;;;;;;;19.42;11.52;;;;;;;;;;2522870;23;20018;-81
2023/05/13 02:20:49;;;;;;;13.15;9.90;;;;;;;;;;2520943;23;20015;-81
2023/05/13 02:22:10;;;;;;;11.82;9.50;;;;;;;;;;2522039;23;20344;-81
2023/05/13 02:23:31;;;;;;;17.25;11.40;;;;;;;;;;2515904;23;20389;-81
2023/05/13 02:24:52;;;;;;;12.02;10.07;;;;;;;;;;2504053;23;20014;-81
2023/05/13 02:26:13;;;;;;;17.35;9.57;;;;;;;;;;2516358;23;20015;-82
2023/05/13 02:27:34;;;;;;;13.30;9.95;;;;;;;;;;2519814;23;20039;-81
2023/05/13 02:28:55;;;;;;;20.73;12.38;;;;;;;;;;2521522;23;20041;-81
2023/05/13 02:30:16;;;;;;;12.98;10.25;;;;;;;;;;2509415;23;20019;-81
2023/05/13 02:31:37;;;;;;;14.45;10.40;;;;;;;;;;2517239;23;20440;-81
2023/05/13 02:32:59;;;;;;;14.52;10.43;;;;;;;;;;2509502;23;20023;-81
2023/05/13 02:34:20;;;;;;;18.73;11.23;;;;;;;;;;2519825;23;20172;-81
2023/05/13 02:35:41;;;;;;;15.75;10.43;;;;;;;;;;2519574;23;20022;-82
2023/05/13 02:37:02;;;;;;;13.63;10.27;;;;;;;;;;2520070;23;20037;-82
2023/05/13 02:38:23;;;;;;;12.60;9.30;;;;;;;;;;2519657;23;20010;-76
2023/05/13 02:39:44;;;;;;;16.08;10.63;;;;;;;;;;2521041;23;20018;-76
2023/05/13 02:41:05;;;;;;;16.63;10.95;;;;;;;;;;2532251;23;20010;-76
2023/05/13 02:42:26;;;;;;;15.32;10.30;;;;;;;;;;2525203;23;20014;-74
2023/05/13 02:43:47;;;;;;;14.82;10.45;;;;;;;;;;2518495;23;20019;-74
2023/05/13 02:45:08;;;;;;;15.88;10.77;;;;;;;;;;2520978;23;20010;-74
2023/05/13 02:46:29;;;;;;;14.32;9.93;;;;;;;;;;2519272;23;20014;-73
2023/05/13 02:47:50;;;;;;;14.75;10.25;;;;;;;;;;2519247;23;20010;-74
2023/05/13 02:49:11;;;;;;;16.20;10.68;;;;;;;;;;2519504;23;20441;-74
2023/05/13 02:50:32;;;;;;;19.73;10.57;;;;;;;;;;2518974;23;20014;-73
2023/05/13 02:51:53;;;;;;;13.85;9.65;;;;;;;;;;2518963;23;20018;-74
2023/05/13 02:53:14;;;;;;;20.75;11.80;;;;;;;;;;2518062;23;20011;-74
2023/05/13 02:54:35;;;;;;;17.67;9.20;;;;;;;;;;2521376;23;20436;-73
2023/05/13 02:55:56;;;;;;;14.18;9.82;;;;;;;;;;2519881;23;20294;-74
2023/05/13 02:57:16;;;;;;;12.02;9.52;;;;;;;;;;2519965;23;20014;-74
2023/05/13 02:58:38;;;;;;;13.50;10.10;;;;;;;;;;2518608;23;20411;-74
2023/05/13 02:59:59;;;;;;;13.95;11.02;;;;;;;;;;2518893;23;20348;-73
2023/05/13 03:01:20;;;;;;;12.88;10.65;;;;;;;;;;2519761;23;20010;-74
2023/05/13 03:02:41;;;;;;;17.48;9.98;;;;;;;;;;2518904;23;20006;-73
2023/05/13 03:04:02;;;;;;;15.45;10.18;;;;;;;;;;2519335;23;20393;-72
2023/05/13 03:05:23;;;;;;;17.13;10.40;;;;;;;;;;2519866;23;20006;-73
2023/05/13 03:06:45;;;;;;;15.25;10.82;;;;;;;;;;2509635;23;20394;-73
2023/05/13 03:08:06;;;;;;;17.77;10.32;;;;;;;;;;2517398;23;20014;-72
2023/05/13 03:09:27;;;;;;;12.70;10.10;;;;;;;;;;2509924;23;20018;-73
2023/05/13 03:10:48;;;;;;;19.05;11.65;;;;;;;;;;2503985;23;20452;-72
2023/05/13 03:12:08;;;;;;;13.27;10.48;;;;;;;;;;2508455;23;20022;-75
2023/05/13 03:13:29;;;;;;;16.98;10.95;;;;;;;;;;2508468;23;20015;-73
2023/05/13 03:14:50;;;;;;;13.00;10.38;;;;;;;;;;2533375;23;20108;-73
2023/05/13 03:16:11;;;;;;;13.43;11.35;;;;;;;;;;2521793;23;20057;-73
2023/05/13 03:17:32;;;;;;;12.60;10.82;;;;;;;;;;2520705;23;20033;-74
2023/05/13 03:18:56;;;;;;;15.32;10.45;;;;;;;;;;2520933;23;20017;-73
2023/05/13 03:20:17;;;;;;;13.82;10.65;;;;;;;;;;2523393;23;20013;-74
2023/05/13 03:21:39;;;;;;;14.52;11.32;;;;;;;;;;2522533;23;20014;-73
2023/05/13 03:23:00;;;;;;;15.15;10.35;;;;;;;;;;2523270;23;20013;-74
2023/05/13 03:24:21;;;;;;;17.95;11.18;;;;;;;;;;2519736;23;20022;-73
2023/05/13 03:25:42;;;;;;;17.27;10.35;;;;;;;;;;2524022;23;20021;-73
2023/05/13 03:27:02;;;;;;;14.00;10.45;;;;;;;;;;2522622;23;20010;-73
2023/05/13 03:28:23;;;;;;;16.05;11.05;;;;;;;;;;2524157;23;20428;-73
2023/05/13 03:29:44;;;;;;;12.02;10.73;;;;;;;;;;2522429;23;20017;-73
2023/05/13 03:31:05;;;;;;;16.08;11.63;;;;;;;;;;2524045;23;20001;-73
2023/05/13 03:32:29;;;;;;;20.40;12.02;;;;;;;;;;2509216;23;20030;-73
2023/05/13 03:33:51;;;;;;;15.50;11.43;;;;;;;;;;2515765;23;20014;-73
2023/05/13 03:35:12;;;;;;;17.27;11.18;;;;;;;;;;2512869;23;20014;-73
2023/05/13 03:36:34;;;;;;;20.75;11.55;;;;;;;;;;2512055;23;20011;-73
2023/05/13 03:37:55;;;;;;;16.63;11.73;;;;;;;;;;2511770;23;20349;-73
2023/05/13 03:39:16;;;;;;;14.45;10.90;;;;;;;;;;2510355;23;20010;-73
2023/05/13 03:40:37;;;;;;;16.30;12.07;;;;;;;;;;2519096;23;20018;-74
2023/05/13 03:41:59;;;;;;;15.32;12.07;;;;;;;;;;2516249;23;20441;-73
2023/05/13 03:43:20;;;;;;;18.45;12.40;;;;;;;;;;2511842;23;20007;-75
2023/05/13 03:44:41;;;;;;;17.95;11.98;;;;;;;;;;2517325;23;20336;-75
2023/05/13 03:46:02;;;;;;;13.90;11.02;;;;;;;;;;2520764;23;20010;-75
2023/05/13 03:47:23;;;;;;;17.30;12.15;;;;;;;;;;2521788;23;20006;-75
2023/05/13 03:48:44;;;;;;;15.82;11.93;;;;;;;;;;2519731;23;20010;-75
2023/05/13 03:50:05;;;;;;;14.30;11.77;;;;;;;;;;2521168;23;20348;-75
2023/05/13 03:51:26;;;;;;;14.23;11.30;;;;;;;;;;2523670;23;20010;-75
2023/05/13 03:52:47;;;;;;;19.33;11.77;;;;;;;;;;2522622;23;20065;-75
2023/05/13 03:54:08;;;;;;;15.27;11.70;;;;;;;;;;2515981;23;20014;-75
2023/05/13 03:55:29;;;;;;;15.90;12.05;;;;;;;;;;2507315;23;20066;-76
2023/05/13 03:56:50;;;;;;;15.30;11.85;;;;;;;;;;2511348;23;20038;-75
2023/05/13 03:58:13;;;;;;;18.90;12.00;;;;;;;;;;2510168;23;20018;-75
2023/05/13 03:59:34;;;;;;;19.92;12.52;;;;;;;;;;2511984;23;20015;-76
2023/05/13 04:00:55;;;;;;;15.32;12.05;;;;;;;;;;2509394;23;20015;-75
2023/05/13 04:02:17;;;;;;;16.05;11.73;;;;;;;;;;2510564;23;20015;-75
2023/05/13 04:03:38;;;;;;;17.52;11.93;;;;;;;;;;2510109;23;20345;-75
2023/05/13 04:04:59;;;;;;;18.27;12.85;;;;;;;;;;2511520;23;20019;-75
2023/05/13 04:06:20;;;;;;;18.92;11.85;;;;;;;;;;2509744;23;20014;-75
2023/05/13 04:07:41;;;;;;;20.67;13.10;;;;;;;;;;2508475;23;20010;-75
2023/05/13 04:09:03;;;;;;;21.17;12.98;;;;;;;;;;2509116;23;20011;-75
2023/05/13 04:10:24;;;;;;;20.25;12.48;;;;;;;;;;2509024;23;20022;-75
2023/05/13 04:11:45;;;;;;;16.02;11.93;;;;;;;;;;2509275;23;20030;-75
2023/05/13 04:13:06;;;;;;;16.63;12.43;;;;;;;;;;2505032;23;20563;-75
2023/05/13 04:14:27;;;;;;;17.88;12.93;;;;;;;;;;2507854;23;20019;-75
2023/05/13 04:15:48;;;;;;;18.65;12.68;;;;;;;;;;2519731;23;20010;-75
2023/05/13 04:17:09;;;;;;;19.38;13.00;;;;;;;;;;2508956;23;20021;-75
2023/05/13 04:18:30;;;;;;;19.00;13.02;;;;;;;;;;2517329;23;20017;-75
2023/05/13 04:19:51;;;;;;;19.05;12.65;;;;;;;;;;2510749;23;20015;-75
2023/05/13 04:21:12;;;;;;;25.65;13.80;;;;;;;;;;2515054;23;20010;-75
2023/05/13 04:22:33;;;;;;;17.52;12.75;;;;;;;;;;2520973;23;20007;-75
2023/05/13 04:23:55;;;;;;;16.65;13.23;;;;;;;;;;2508846;23;20007;-75
2023/05/13 04:25:15;;;;;;;15.77;12.40;;;;;;;;;;2518065;23;20003;-75
2023/05/13 04:26:36;;;;;;;22.02;14.32;;;;;;;;;;2522103;23;20010;-75
2023/05/13 04:27:58;;;;;;;19.08;12.18;;;;;;;;;;2522371;23;20013;-75
2023/05/13 04:29:18;;;;;;;15.65;11.55;;;;;;;;;;2521067;23;20033;-75
2023/05/13 04:30:39;;;;;;;22.60;12.68;;;;;;;;;;2521232;23;20021;-75
2023/05/13 04:32:00;;;;;;;21.90;13.63;;;;;;;;;;2507020;23;20011;-75
2023/05/13 04:33:21;;;;;;;20.05;12.73;;;;;;;;;;2503221;23;20015;-75
2023/05/13 04:34:42;;;;;;;15.75;12.68;;;;;;;;;;2505807;23;20019;-75
2023/05/13 04:36:03;;;;;;;16.27;12.05;;;;;;;;;;2516330;23;20010;-75
2023/05/13 04:37:24;;;;;;;22.00;13.35;;;;;;;;;;2519502;23;20349;-75
2023/05/13 04:38:45;;;;;;;17.45;12.50;;;;;;;;;;2510107;23;20022;-75
2023/05/13 04:40:07;;;;;;;15.90;11.50;;;;;;;;;;2504928;23;20119;-75
2023/05/13 04:41:31;;;;;;;19.38;12.60;;;;;;;;;;2517772;23;20010;-75
2023/05/13 04:42:53;;;;;;;22.80;13.43;;;;;;;;;;2508970;23;20014;-75
2023/05/13 04:44:15;;;;;;;24.50;13.50;;;;;;;;;;2517986;23;20015;-75
2023/05/13 04:45:36;;;;;;;16.25;12.07;;;;;;;;;;2507484;23;20337;-75
2023/05/13 04:46:56;;;;;;;16.67;12.65;;;;;;;;;;2516787;23;20515;-76
2023/05/13 04:48:17;;;;;;;21.00;13.60;;;;;;;;;;2519933;23;20017;-75
2023/05/13 04:49:38;;;;;;;18.63;12.95;;;;;;;;;;2509899;23;20026;-75
2023/05/13 04:50:59;;;;;;;17.10;12.82;;;;;;;;;;2516733;23;20010;-76
2023/05/13 04:52:20;;;;;;;17.75;13.50;;;;;;;;;;2521779;23;20345;-75
2023/05/13 04:53:41;;;;;;;16.70;12.98;;;;;;;;;;2508815;23;20011;-75
2023/05/13 04:55:02;;;;;;;25.17;14.27;;;;;;;;;;2528610;23;20067;-75
2023/05/13 04:56:23;;;;;;;18.70;13.15;;;;;;;;;;2532914;23;20013;-76
2023/05/13 04:57:44;;;;;;;18.10;13.30;;;;;;;;;;2532561;23;20033;-75
2023/05/13 04:59:05;;;;;;;18.63;13.50;;;;;;;;;;2531503;23;20014;-75
2023/05/13 05:00:25;;;;;;;16.90;12.73;;;;;;;;;;2521843;23;20021;-75
2023/05/13 05:01:46;;;;;;;20.90;12.82;;;;;;;;;;2517592;23;20452;-75
2023/05/13 05:03:07;;;;;;;19.50;12.63;;;;;;;;;;2530669;23;20017;-75
2023/05/13 05:04:28;;;;;;;17.38;12.23;;;;;;;;;;2519815;23;20014;-76
2023/05/13 05:05:49;;;;;;;16.38;12.52;;;;;;;;;;2516531;23;20019;-75
2023/05/13 05:07:10;;;;;;;18.92;13.27;;;;;;;;;;2517578;23;20014;-76
2023/05/13 05:08:31;;;;;;;17.88;12.80;;;;;;;;;;2527364;23;20021;-75
2023/05/13 05:09:52;;;;;;;19.17;13.25;;;;;;;;;;2533315;23;20348;-75
2023/05/13 05:11:13;;;;;;;20.67;12.88;;;;;;;;;;2531758;23;20016;-75
2023/05/13 05:12:33;;;;;;;28.02;15.00;;;;;;;;;;2529856;23;20077;-75
2023/05/13 05:13:54;;;;;;;16.65;13.23;;;;;;;;;;2517593;23;20023;-76
2023/05/13 05:15:15;;;;;;;19.45;13.35;;;;;;;;;;2515746;23;20058;-76
2023/05/13 05:16:36;;;;;;;16.23;12.70;;;;;;;;;;2515803;23;20010;-76
2023/05/13 05:17:57;;;;;;;16.58;13.45;;;;;;;;;;2528866;23;20018;-76
2023/05/13 05:19:22;;;;;;;19.02;12.88;;;;;;;;;;2534208;23;20010;-76
2023/05/13 05:20:43;;;;;;;17.75;12.73;;;;;;;;;;2532635;23;20352;-82
2023/05/13 05:22:05;;;;;;;19.40;13.05;;;;;;;;;;2536370;23;20017;-81
2023/05/13 05:23:26;;;;;;;19.92;14.00;;;;;;;;;;2534512;23;20455;-82
2023/05/13 05:24:50;;;;;;;20.17;12.97;;;;;;;;;;2521368;23;20010;-81
2023/05/13 05:26:10;;;;;;;15.32;12.43;;;;;;;;;;2531414;23;20381;-81
2023/05/13 05:27:31;;;;;;;16.40;13.65;;;;;;;;;;2533414;23;20011;-81
2023/05/13 05:28:52;;;;;;;22.48;14.15;;;;;;;;;;2531962;23;20006;-82
2023/05/13 05:30:14;;;;;;;23.17;14.43;;;;;;;;;;2531606;23;20462;-82
2023/05/13 05:31:35;;;;;;;21.02;13.82;;;;;;;;;;2519948;23;20451;-82
2023/05/13 05:32:56;;;;;;;17.40;13.40;;;;;;;;;;2529736;23;20013;-81
2023/05/13 05:34:17;;;;;;;20.88;14.25;;;;;;;;;;2533002;23;20021;-80
2023/05/13 05:35:38;;;;;;;17.85;13.35;;;;;;;;;;2522360;23;20014;-74
2023/05/13 05:36:59;;;;;;;21.88;13.70;;;;;;;;;;2521503;23;20010;-74
2023/05/13 05:38:20;;;;;;;22.33;14.00;;;;;;;;;;2521222;23;20011;-74
2023/05/13 05:39:40;;;;;;;16.35;12.90;;;;;;;;;;2521892;23;20341;-73
2023/05/13 05:41:01;;;;;;;29.23;15.13;;;;;;;;;;2521957;23;20017;-74
2023/05/13 05:42:22;;;;;;;19.60;13.20;;;;;;;;;;2507871;23;20109;-81
2023/05/13 05:43:43;;;;;;;22.55;12.98;;;;;;;;;;2518030;23;20006;-81
2023/05/13 05:45:04;;;;;;;21.95;14.23;;;;;;;;;;2521548;23;20014;-81
2023/05/13 05:46:26;;;;;;;19.15;13.63;;;;;;;;;;2510802;23;20018;-81
2023/05/13 05:47:47;;;;;;;19.95;13.27;;;;;;;;;;2507481;23;20469;-81
2023/05/13 05:49:08;;;;;;;18.33;13.68;;;;;;;;;;2519582;23;20021;-81
2023/05/13 05:50:35;;;;;;;19.00;13.60;;;;;;;;;;2522159;23;20022;-82
2023/05/13 05:51:56;;;;;;;17.45;13.65;;;;;;;;;;2522513;23;20014;-81
2023/05/13 05:53:17;;;;;;;18.20;12.90;;;;;;;;;;2522500;23;20014;-81
2023/05/13 05:54:38;;;;;;;21.02;13.88;;;;;;;;;;2509054;23;20015;-81
2023/05/13 05:55:58;;;;;;;19.00;13.88;;;;;;;;;;2518971;23;20014;-81
2023/05/13 05:57:19;;;;;;;21.67;14.48;;;;;;;;;;2521583;23;20409;-81
2023/05/13 05:58:40;;;;;;;21.52;14.75;;;;;;;;;;2522600;23;20010;-81
2023/05/13 06:00:02;;;;;;;20.52;14.20;;;;;;;;;;2522257;23;20021;-81
2023/05/13 06:01:23;;;;;;;21.73;15.50;;;;;;;;;;2522909;23;20026;-81
2023/05/13 06:02:43;;;;;;;21.23;14.27;;;;;;;;;;2523426;23;20013;-81
2023/05/13 06:04:05;;;;;;;22.92;13.55;;;;;;;;;;2522848;23;20007;-81
2023/05/13 06:05:26;;;;;;;22.75;15.60;;;;;;;;;;2532064;23;20021;-81
2023/05/13 06:06:47;;;;;;;19.05;13.90;;;;;;;;;;2535434;23;20066;-81
2023/05/13 06:08:09;;;;;;;21.85;15.80;;;;;;;;;;2534985;23;20006;-81
2023/05/13 06:09:30;;;;;;;18.70;14.38;;;;;;;;;;2522988;23;20017;-80
2023/05/13 06:10:51;;;;;;;20.52;13.93;;;;;;;;;;2530267;23;20352;-81
2023/05/13 06:12:13;;;;;;;29.00;16.20;;;;;;;;;;2534025;23;20018;-81
2023/05/13 06:13:34;;;;;;;25.27;16.08;;;;;;;;;;2519848;23;20010;-82
2023/05/13 06:14:55;;;;;;;20.20;14.38;;;;;;;;;;2522150;23;20348;-81
2023/05/13 06:16:16;;;;;;;19.20;14.23;;;;;;;;;;2510897;23;20018;-74
2023/05/13 06:17:37;;;;;;;23.75;14.38;;;;;;;;;;2505795;23;20540;-73
2023/05/13 06:18:57;;;;;;;27.55;15.52;;;;;;;;;;2504677;23;20037;-74
2023/05/13 06:20:18;;;;;;;19.80;14.70;;;;;;;;;;2509786;23;20352;-74
2023/05/13 06:21:41;;;;;;;23.08;15.82;;;;;;;;;;2505987;23;20011;-74
2023/05/13 06:23:02;;;;;;;18.52;13.73;;;;;;;;;;2507100;23;20010;-74
2023/05/13 06:24:23;;;;;;;25.80;16.20;;;;;;;;;;2517457;23;20014;-77
2023/05/13 06:25:45;;;;;;;20.77;15.43;;;;;;;;;;2532037;23;20009;-73
2023/05/13 06:27:06;;;;;;;19.55;14.82;;;;;;;;;;2533021;23;20348;-73
2023/05/13 06:28:27;;;;;;;25.45;15.57;;;;;;;;;;2521240;23;20014;-73
2023/05/13 06:29:48;;;;;;;27.48;15.95;;;;;;;;;;2518869;23;20010;-74
2023/05/13 06:31:09;;;;;;;21.27;15.00;;;;;;;;;;2530032;23;20009;-74
2023/05/13 06:32:30;;;;;;;21.23;15.88;;;;;;;;;;2521736;23;20043;-73
2023/05/13 06:33:51;;;;;;;21.45;14.98;;;;;;;;;;2519159;23;20015;-73
2023/05/13 06:35:12;;;;;;;26.58;16.48;;;;;;;;;;2517566;23;20018;-74
2023/05/13 06:36:33;;;;;;;18.50;14.30;;;;;;;;;;2518768;23;20010;-73
2023/05/13 06:37:54;;;;;;;27.67;15.45;;;;;;;;;;2508146;23;20082;-75
2023/05/13 06:39:15;;;;;;;21.23;14.70;;;;;;;;;;2518386;23;20022;-74
2023/05/13 06:40:36;;;;;;;23.27;15.55;;;;;;;;;;2507948;23;20237;-74
2023/05/13 06:41:56;;;;;;;19.08;13.73;;;;;;;;;;2517928;23;20007;-74
2023/05/13 06:43:17;;;;;;;20.85;14.57;;;;;;;;;;2521745;23;20017;-74
2023/05/13 06:44:38;;;;;;;33.53;16.67;;;;;;;;;;2517765;23;20037;-73
2023/05/13 06:45:59;;;;;;;36.92;17.50;;;;;;;;;;2515662;23;20301;-73
2023/05/13 06:47:20;;;;;;;19.80;14.40;;;;;;;;;;2520666;23;20364;-73
2023/05/13 06:48:42;;;;;;;20.20;14.10;;;;;;;;;;2519240;23;20014;-73
2023/05/13 06:50:04;;;;;;;22.17;15.13;;;;;;;;;;2506964;23;20021;-73
2023/05/13 06:51:29;;;;;;;22.48;15.15;;;;;;;;;;2515230;23;20452;-72
2023/05/13 06:52:50;;;;;;;20.77;14.10;;;;;;;;;;2519839;23;20014;-73
2023/05/13 06:54:11;;;;;;;20.23;13.77;;;;;;;;;;2508154;23;20011;-73
2023/05/13 06:55:31;;;;;;;23.40;14.02;;;;;;;;;;2513439;23;20018;-73
2023/05/13 06:56:53;;;;;;;17.92;13.07;;;;;;;;;;2524205;23;20445;-80
2023/05/13 06:58:14;;;;;;;27.45;15.48;;;;;;;;;;2522906;23;20015;-81
2023/05/13 06:59:35;;;;;;;21.08;14.82;;;;;;;;;;2520209;23;20017;-80
2023/05/13 07:00:56;;;;;;;19.90;13.52;;;;;;;;;;2509630;23;20011;-81
2023/05/13 07:02:17;;;;;;;33.75;16.70;;;;;;;;;;2518783;23;20530;-82
2023/05/13 07:03:38;;;;;;;23.50;14.98;;;;;;;;;;2521533;23;20021;-77
2023/05/13 07:04:59;;;;;;;18.75;13.95;;;;;;;;;;2519319;23;20014;-76
2023/05/13 07:06:20;;;;;;;21.50;13.82;;;;;;;;;;2521629;23;20011;-76
2023/05/13 07:07:42;;;;;;;20.92;14.05;;;;;;;;;;2523872;23;20440;-76
2023/05/13 07:09:02;;;;;;;21.67;14.40;;;;;;;;;;2523352;23;20075;-76
2023/05/13 07:10:23;;;;;;;15.82;13.05;;;;;;;;;;2520923;23;20030;-77
2023/05/13 07:11:44;;;;;;;18.00;13.52;;;;;;;;;;2520630;23;20014;-76
2023/05/13 07:13:06;;;;;;;22.83;13.07;;;;;;;;;;2507273;23;20437;-76
2023/05/13 07:14:26;;;;;;;19.98;12.80;;;;;;;;;;2518545;23;20012;-77
2023/05/13 07:15:47;;;;;;;23.52;14.38;;;;;;;;;;2520963;23;20022;-76
2023/05/13 07:17:08;;;;;;;20.67;13.98;;;;;;;;;;2509218;23;20007;-77
2023/05/13 07:18:29;;;;;;;18.40;13.23;;;;;;;;;;2502295;23;20445;-76
2023/05/13 07:19:50;;;;;;;17.35;13.10;;;;;;;;;;2517032;23;20021;-76
2023/05/13 07:21:13;;;;;;;15.88;13.68;;;;;;;;;;2510419;23;20015;-76
2023/05/13 07:22:34;;;;;;;20.05;14.02;;;;;;;;;;2503185;23;20015;-76
2023/05/13 07:23:55;;;;;;;20.90;13.27;;;;;;;;;;2516482;23;20007;-74
2023/05/13 07:25:17;;;;;;;18.42;12.90;;;;;;;;;;2527464;23;20023;-76
2023/05/13 07:26:38;;;;;;;21.38;13.00;;;;;;;;;;2533995;23;20421;-76
2023/05/13 07:27:59;;;;;;;21.02;13.30;;;;;;;;;;2534135;23;20057;-76
2023/05/13 07:29:20;;;;;;;16.83;12.80;;;;;;;;;;2531054;23;20010;-76
2023/05/13 07:30:41;;;;;;;22.75;13.10;;;;;;;;;;2531987;23;20013;-76
2023/05/13 07:32:03;;;;;;;16.52;12.40;;;;;;;;;;2531304;23;20006;-76
2023/05/13 07:33:23;;;;;;;24.75;14.35;;;;;;;;;;2517635;23;20010;-76
2023/05/13 07:34:44;;;;;;;20.15;13.40;;;;;;;;;;2524245;23;20014;-76
2023/05/13 07:36:05;;;;;;;18.35;12.88;;;;;;;;;;2520890;23;20015;-76
2023/05/13 07:37:26;;;;;;;18.85;12.52;;;;;;;;;;2507425;23;20011;-76
2023/05/13 07:38:47;;;;;;;16.45;12.10;;;;;;;;;;2517098;23;20018;-75
2023/05/13 07:40:08;;;;;;;20.55;12.75;;;;;;;;;;2508894;23;20047;-75
2023/05/13 07:41:29;;;;;;;19.85;12.68;;;;;;;;;;2515271;23;20015;-75
2023/05/13 07:42:50;;;;;;;18.65;12.65;;;;;;;;;;2521712;23;20010;-75
2023/05/13 07:44:12;;;;;;;16.17;12.38;;;;;;;;;;2521580;23;20431;-75
2023/05/13 07:45:33;;;;;;;26.35;14.65;;;;;;;;;;2518688;23;20015;-75
2023/05/13 07:46:54;;;;;;;16.98;12.30;;;;;;;;;;2521308;23;20314;-75
2023/05/13 07:48:16;;;;;;;24.23;14.50;;;;;;;;;;2519687;23;20118;-75
2023/05/13 07:49:37;;;;;;;18.75;11.95;;;;;;;;;;2522377;23;20014;-75
2023/05/13 07:50:58;;;;;;;19.65;13.25;;;;;;;;;;2521552;23;20014;-75
2023/05/13 07:52:19;;;;;;;16.45;12.45;;;;;;;;;;2520956;23;20011;-75
2023/05/13 07:53:40;;;;;;;18.38;12.95;;;;;;;;;;2520778;23;20326;-75
2023/05/13 07:55:01;;;;;;;20.15;13.45;;;;;;;;;;2520171;23;20014;-75